ENLA weather

Ula Platform
Norway

Public forecast

Using degrees Celsius for public forecast. Weather courtesy of forecast.io.

METAR (pilot weather report)

Retrieved 2019/04/22 23:20 UTC (29 minutes ago):

ENLA 222320Z AUTO 11030KT 9999NDV NCD 10/06 Q1011 W///S3

TAF (pilot weather forecast)

Closest forecast is Oseberg A Platform, 82.9 nm (153.5 km) N. Retrieved 2019/04/22 21:57 UTC (2 hours ago):

TAF TAF ENOA 222000Z 2221/2321 16035KT CAVOK BECMG 2313/2316 15025KT